Time;durP1;ratioP1;P1;durP2;ratioP2;P2;SDS_P1;SDS_P2;PMS_P1;PMS_P2;Temp;Humidity;BMP_temperature;BMP_pressure;BME280_temperature;BME280_humidity;BME280_pressure;Samples;Min_cycle;Max_cycle;Signal;HPM_P1;HPM_P2
2021/11/09 00:02:18;;;;;;;43.45;15.85;;;;;;;;;;4419728;32;19997;-72
2021/11/09 00:04:48;;;;;;;;;;;;;;;;;;4421335;32;20198;-71
2021/11/09 00:09:59;;;;;;;39.72;15.15;;;;;;;;;;4421412;32;20094;-71
2021/11/09 00:12:27;;;;;;;37.45;13.52;;;;;;;;;;4421028;32;20053;-71
2021/11/09 00:14:52;;;;;;;51.22;16.73;;;;;;;;;;4420419;32;20026;-71
2021/11/09 00:17:17;;;;;;;;;;;;;;;;;;4420335;32;20052;-71
2021/11/09 00:19:43;;;;;;;36.04;17.20;;;;;;;;;;4420600;32;19929;-70
2021/11/09 00:22:08;;;;;;;;;;;;;;;;;;4421572;32;20022;-71
2021/11/09 00:24:33;;;;;;;40.65;16.42;;;;;;;;;;4421116;32;19937;-71
2021/11/09 00:26:58;;;;;;;;;;;;;;;;;;4421097;32;20109;-71
2021/11/09 00:29:24;;;;;;;40.38;17.60;;;;;;;;;;4420182;32;19964;-71
2021/11/09 00:31:49;;;;;;;;;;;;;;;;;;4406599;32;20531;-71
2021/11/09 00:34:14;;;;;;;36.05;16.58;;;;;;;;;;4421086;32;19937;-71
2021/11/09 00:36:39;;;;;;;;;;;;;;;;;;4420927;32;20113;-71
2021/11/09 00:39:07;;;;;;;48.20;17.67;;;;;;;;;;4420212;32;20345;-71
2021/11/09 00:41:32;;;;;;;51.60;17.65;;;;;;;;;;4407895;32;20034;-71
2021/11/09 00:43:57;;;;;;;;;;;;;;;;;;4411262;32;20052;-71
2021/11/09 00:46:22;;;;;;;49.08;16.40;;;;;;;;;;4405016;32;19946;-71
2021/11/09 00:48:48;;;;;;;;;;;;;;;;;;4406792;32;20504;-71
2021/11/09 00:51:13;;;;;;;41.58;18.32;;;;;;;;;;4405431;32;19956;-71
2021/11/09 00:53:39;;;;;;;;;;;;;;;;;;4407121;32;20396;-71
2021/11/09 00:56:04;;;;;;;43.65;17.50;;;;;;;;;;4405560;32;19933;-71
2021/11/09 00:58:30;;;;;;;;;;;;;;;;;;4398060;32;20044;-72
2021/11/09 01:00:55;;;;;;;43.36;16.34;;;;;;;;;;4406042;32;19937;-72
2021/11/09 01:03:20;;;;;;;;;;;;;;;;;;4421115;32;20403;-72
2021/11/09 01:05:45;;;;;;;45.42;17.05;;;;;;;;;;4406459;32;19952;-71
2021/11/09 01:08:11;;;;;;;;;;;;;;;;;;4420713;32;20417;-72
2021/11/09 01:10:39;;;;;;;35.17;17.25;;;;;;;;;;4419649;32;19989;-71
2021/11/09 01:13:04;;;;;;;42.10;19.02;;;;;;;;;;4420770;32;20080;-69
2021/11/09 01:15:30;;;;;;;;;;;;;;;;;;4420222;32;20410;-70
2021/11/09 01:17:57;;;;;;;41.28;18.83;;;;;;;;;;4402150;32;19948;-71
2021/11/09 01:20:23;;;;;;;48.25;18.17;;;;;;;;;;4391251;32;20039;-70
2021/11/09 01:22:52;;;;;;;48.42;18.55;;;;;;;;;;4405382;32;20022;-70
2021/11/09 01:25:18;;;;;;;45.45;20.17;;;;;;;;;;4391631;32;20015;-70
2021/11/09 01:27:43;;;;;;;;;;;;;;;;;;4405066;32;20302;-70
2021/11/09 01:30:09;;;;;;;36.00;16.77;;;;;;;;;;4405673;32;19937;-71
2021/11/09 01:32:34;;;;;;;;;;;;;;;;;;4405118;32;20084;-70
2021/11/09 01:34:59;;;;;;;62.78;18.02;;;;;;;;;;4405184;32;19983;-70
2021/11/09 01:37:25;;;;;;;;;;;;;;;;;;4404748;32;20221;-70
2021/11/09 01:39:50;;;;;;;41.28;18.08;;;;;;;;;;4394783;32;19963;-71
2021/11/09 01:42:15;;;;;;;;;;;;;;;;;;4394483;32;20044;-71
2021/11/09 01:44:40;;;;;;;52.00;19.20;;;;;;;;;;4408279;32;19934;-70
2021/11/09 01:47:05;;;;;;;;;;;;;;;;;;4408619;32;20117;-71
2021/11/09 01:49:31;;;;;;;46.83;19.70;;;;;;;;;;4408638;32;19993;-72
2021/11/09 01:51:56;;;;;;;;;;;;;;;;;;4395541;32;20512;-70
2021/11/09 01:54:21;;;;;;;54.97;17.25;;;;;;;;;;4393233;32;19997;-71
2021/11/09 01:56:47;;;;;;;;;;;;;;;;;;4394169;32;20144;-71
2021/11/09 01:59:12;;;;;;;47.20;17.23;;;;;;;;;;4407830;32;19956;-71
2021/11/09 02:01:37;;;;;;;;;;;;;;;;;;4394701;32;20049;-71
2021/11/09 02:04:05;;;;;;;36.70;16.98;;;;;;;;;;4407213;32;19948;-71
2021/11/09 02:06:30;;;;;;;52.62;17.42;;;;;;;;;;4392932;32;20038;-71
2021/11/09 02:09:03;;;;;;;;;;;;;;;;;;4407550;32;20015;-71
2021/11/09 02:11:28;;;;;;;53.67;18.92;;;;;;;;;;4407564;32;20346;-71
2021/11/09 02:13:53;;;;;;;;;;;;;;;;;;4407492;32;20034;-71
2021/11/09 02:16:19;;;;;;;48.47;17.75;;;;;;;;;;4407198;32;20000;-71
2021/11/09 02:18:57;;;;;;;;;;;;;;;;;;;;;
2021/11/09 02:21:23;;;;;;;45.00;16.45;;;;;;;;;;4402593;32;19969;-71
2021/11/09 02:23:48;;;;;;;;;;;;;;;;;;4406644;32;20030;-70
2021/11/09 02:26:15;;;;;;;52.10;15.65;;;;;;;;;;4407034;32;20035;-70
2021/11/09 02:28:42;;;;;;;45.92;16.12;;;;;;;;;;4405559;32;20061;-71
2021/11/09 02:31:08;;;;;;;42.88;14.93;;;;;;;;;;4405516;32;20091;-71
2021/11/09 02:33:33;;;;;;;;;;;;;;;;;;4406693;32;20022;-71
2021/11/09 02:35:58;;;;;;;45.75;17.08;;;;;;;;;;4406463;32;19934;-70
2021/11/09 02:38:23;;;;;;;;;;;;;;;;;;4393098;32;20169;-71
2021/11/09 02:40:48;;;;;;;44.33;14.13;;;;;;;;;;4407403;32;19934;-70
2021/11/09 02:43:14;;;;;;;;;;;;;;;;;;4407871;32;20165;-71
2021/11/09 02:45:53;;;;;;;45.95;15.10;;;;;;;;;;4392913;32;19968;-71
2021/11/09 02:48:23;;;;;;;57.03;14.90;;;;;;;;;;4406808;32;20030;-69
2021/11/09 02:50:54;;;;;;;35.13;13.90;;;;;;;;;;4406774;32;20034;-72
2021/11/09 02:53:32;;;;;;;36.70;15.02;;;;;;;;;;4406795;32;20018;-71
2021/11/09 02:56:07;;;;;;;45.45;14.95;;;;;;;;;;4393096;32;20018;-71
2021/11/09 03:09:01;;;;;;;41.83;14.25;;;;;;;;;;4407356;32;19949;-71
2021/11/09 03:11:27;;;;;;;44.25;15.68;;;;;;;;;;4392377;32;20132;-71
2021/11/09 03:13:53;;;;;;;;;;;;;;;;;;4406565;32;20023;-71
2021/11/09 03:16:18;;;;;;;43.80;16.12;;;;;;;;;;4405979;32;20275;-69
2021/11/09 03:18:46;;;;;;;;;;;;;;;;;;4407383;32;20079;-71
2021/11/09 03:45:27;;;;;;;58.72;15.80;;;;;;;;;;4421880;32;20056;-70
2021/11/09 03:47:55;;;;;;;45.10;16.17;;;;;;;;;;4421313;32;20009;-72
2021/11/09 03:50:22;;;;;;;50.78;15.77;;;;;;;;;;4420514;32;20057;-71
2021/11/09 03:52:58;;;;;;;56.95;19.67;;;;;;;;;;4420420;32;20018;-70
2021/11/09 03:58:08;;;;;;;41.33;15.95;;;;;;;;;;4420572;32;20489;-70
2021/11/09 04:01:03;;;;;;;55.22;18.05;;;;;;;;;;4420189;32;20033;-70
2021/11/09 04:03:54;;;;;;;40.05;15.02;;;;;;;;;;4420457;32;20049;-70
2021/11/09 04:11:45;;;;;;;42.85;16.42;;;;;;;;;;4422315;32;20463;-72
2021/11/09 04:14:22;;;;;;;44.25;17.87;;;;;;;;;;4410024;32;20011;-72
2021/11/09 04:17:00;;;;;;;47.88;17.73;;;;;;;;;;4406334;32;20019;-70
2021/11/09 04:24:54;;;;;;;47.15;17.90;;;;;;;;;;4421346;32;20313;-70
2021/11/09 04:53:48;;;;;;;46.28;19.67;;;;;;;;;;4405746;32;20041;-70
2021/11/09 05:10:05;;;;;;;42.40;20.52;;;;;;;;;;4406115;32;20057;-71
2021/11/09 05:12:34;;;;;;;45.30;23.25;;;;;;;;;;4406750;32;20092;-70
2021/11/09 05:14:59;;;;;;;51.75;22.58;;;;;;;;;;4409035;32;20057;-71
2021/11/09 05:17:25;;;;;;;;;;;;;;;;;;4408816;32;20467;-71
2021/11/09 05:19:50;;;;;;;51.30;21.45;;;;;;;;;;4406818;32;20350;-70
2021/11/09 05:22:15;;;;;;;;;;;;;;;;;;4394364;32;20418;-71
2021/11/09 05:24:43;;;;;;;58.33;26.52;;;;;;;;;;4408061;32;19986;-69
2021/11/09 05:27:09;;;;;;;59.25;23.90;;;;;;;;;;4393415;32;20520;-70
2021/11/09 05:29:34;;;;;;;;;;;;;;;;;;4407939;32;20045;-71
2021/11/09 05:31:59;;;;;;;54.58;24.12;;;;;;;;;;4407711;32;19934;-70
2021/11/09 05:34:29;;;;;;;;;;;;;;;;;;4409579;32;20149;-70
2021/11/09 05:36:54;;;;;;;49.80;23.52;;;;;;;;;;4394307;32;19965;-71
2021/11/09 05:39:24;;;;;;;;;;;;;;;;;;4408575;32;20023;-70
2021/11/09 05:41:52;;;;;;;55.75;25.30;;;;;;;;;;4407675;32;19985;-71
2021/11/09 05:44:17;;;;;;;67.97;25.55;;;;;;;;;;4407937;32;20027;-70
2021/11/09 05:46:42;;;;;;;;;;;;;;;;;;4407903;32;20053;-69
2021/11/09 05:49:08;;;;;;;50.58;24.90;;;;;;;;;;4394279;32;19941;-70
2021/11/09 05:51:35;;;;;;;;;;;;;;;;;;4393851;32;20056;-70
2021/11/09 05:54:01;;;;;;;59.13;24.60;;;;;;;;;;4407139;32;19981;-70
2021/11/09 05:56:26;;;;;;;;;;;;;;;;;;4394790;32;20363;-70
2021/11/09 05:58:52;;;;;;;70.85;25.08;;;;;;;;;;4408006;32;20236;-69
2021/11/09 06:01:17;;;;;;;;;;;;;;;;;;4407678;32;20184;-67
2021/11/09 06:03:44;;;;;;;70.28;27.27;;;;;;;;;;4407320;32;19933;-71
2021/11/09 06:06:10;;;;;;;56.65;23.85;;;;;;;;;;4406709;32;20118;-68
2021/11/09 06:08:36;;;;;;;;;;;;;;;;;;4407336;32;20044;-71
2021/11/09 06:11:02;;;;;;;70.72;27.20;;;;;;;;;;4406667;32;20341;-70
2021/11/09 06:13:27;;;;;;;;;;;;;;;;;;4407898;32;20026;-68
2021/11/09 06:15:52;;;;;;;55.83;24.98;;;;;;;;;;4406506;32;19963;-70
2021/11/09 06:18:17;;;;;;;;;;;;;;;;;;4407319;32;20500;-69
2021/11/09 06:20:42;;;;;;;50.47;22.13;;;;;;;;;;4407403;32;19968;-71
2021/11/09 06:23:07;;;;;;;;;;;;;;;;;;4407099;32;20160;-70
2021/11/09 06:25:34;;;;;;;58.40;21.33;;;;;;;;;;4407013;32;20271;-70
2021/11/09 06:28:03;;;;;;;50.05;22.30;;;;;;;;;;4393157;32;20022;-71
2021/11/09 06:30:29;;;;;;;69.55;24.00;;;;;;;;;;4406394;32;20052;-70
2021/11/09 06:32:54;;;;;;;;;;;;;;;;;;4407232;32;20054;-69
2021/11/09 06:35:19;;;;;;;42.90;22.05;;;;;;;;;;4406353;32;20372;-71
2021/11/09 06:37:45;;;;;;;;;;;;;;;;;;4412478;32;20057;-70
2021/11/09 06:40:10;;;;;;;53.67;20.50;;;;;;;;;;4407896;32;20331;-69
2021/11/09 06:42:36;;;;;;;;;;;;;;;;;;4422821;32;20328;-70
2021/11/09 06:45:01;;;;;;;59.20;22.17;;;;;;;;;;4421179;32;19937;-70
2021/11/09 06:47:26;;;;;;;;;;;;;;;;;;4421746;32;20014;-71
2021/11/09 06:49:52;;;;;;;54.20;22.72;;;;;;;;;;4421236;32;20030;-70
2021/11/09 06:52:17;;;;;;;;;;;;;;;;;;4422265;32;20022;-71
2021/11/09 06:54:44;;;;;;;59.33;23.52;;;;;;;;;;4418160;32;19953;-70
2021/11/09 06:57:11;;;;;;;60.47;19.92;;;;;;;;;;4412266;32;20540;-70
2021/11/09 06:59:36;;;;;;;56.97;21.12;;;;;;;;;;4420943;32;20091;-70
2021/11/09 07:02:01;;;;;;;;;;;;;;;;;;4420881;32;20057;-71
2021/11/09 07:04:27;;;;;;;42.65;18.37;;;;;;;;;;4421382;32;19949;-68
2021/11/09 07:06:52;;;;;;;;;;;;;;;;;;4421356;32;20121;-67
2021/11/09 07:09:18;;;;;;;44.38;20.67;;;;;;;;;;4407251;32;19937;-70
2021/11/09 07:11:44;;;;;;;48.80;19.67;;;;;;;;;;4420713;32;20152;-70
2021/11/09 07:14:09;;;;;;;;;;;;;;;;;;4416770;32;20015;-69
2021/11/09 07:16:36;;;;;;;55.97;19.48;;;;;;;;;;4406964;32;19973;-70
2021/11/09 07:19:03;;;;;;;44.13;20.02;;;;;;;;;;4406419;32;20018;-70
2021/11/09 07:21:30;;;;;;;42.53;19.45;;;;;;;;;;4410950;32;20109;-70
2021/11/09 07:23:55;;;;;;;46.17;20.50;;;;;;;;;;4414139;32;20053;-70
2021/11/09 07:26:20;;;;;;;;;;;;;;;;;;4407367;32;20084;-69
2021/11/09 07:28:46;;;;;;;42.97;19.12;;;;;;;;;;4406117;32;19937;-69
2021/11/09 07:31:12;;;;;;;;;;;;;;;;;;4407107;32;20034;-72
2021/11/09 07:33:38;;;;;;;50.92;17.95;;;;;;;;;;4415873;32;19941;-71
2021/11/09 07:36:03;;;;;;;;;;;;;;;;;;4411024;32;20041;-68
2021/11/09 07:38:28;;;;;;;53.33;18.58;;;;;;;;;;4420794;32;19984;-70
2021/11/09 07:40:54;;;;;;;;;;;;;;;;;;4415916;32;20068;-70
2021/11/09 07:43:19;;;;;;;41.60;19.60;;;;;;;;;;4406872;32;19989;-67
2021/11/09 07:45:45;;;;;;;;;;;;;;;;;;4399523;32;20055;-70
2021/11/09 07:48:12;;;;;;;48.85;19.08;;;;;;;;;;4420708;32;19933;-68
2021/11/09 07:50:37;;;;;;;37.63;18.10;;;;;;;;;;4420711;32;20162;-70
2021/11/09 07:53:03;;;;;;;;;;;;;;;;;;4421436;32;20034;-69
2021/11/09 07:55:31;;;;;;;43.30;18.50;;;;;;;;;;4420594;32;19933;-70
2021/11/09 07:58:04;;;;;;;41.33;17.17;;;;;;;;;;4420291;32;20022;-70
2021/11/09 08:00:35;;;;;;;38.95;16.58;;;;;;;;;;4420935;32;20089;-69
2021/11/09 08:03:23;;;;;;;39.45;18.95;;;;;;;;;;4406588;32;20080;-70
2021/11/09 08:08:51;;;;;;;41.22;18.62;;;;;;;;;;4420693;32;20075;-69
2021/11/09 08:11:16;;;;;;;42.22;18.02;;;;;;;;;;4420181;32;20054;-72
2021/11/09 08:13:42;;;;;;;;;;;;;;;;;;4420540;32;20037;-71
2021/11/09 08:16:07;;;;;;;43.80;19.08;;;;;;;;;;4421124;32;20351;-70
2021/11/09 08:18:32;;;;;;;;;;;;;;;;;;4420935;32;20129;-69
2021/11/09 08:20:58;;;;;;;57.80;20.15;;;;;;;;;;4420245;32;19937;-70
2021/11/09 08:23:23;;;;;;;;;;;;;;;;;;4420744;32;20451;-71
2021/11/09 08:25:49;;;;;;;44.15;18.58;;;;;;;;;;4420239;32;19948;-70
2021/11/09 08:28:14;;;;;;;;;;;;;;;;;;4420633;32;20157;-70
2021/11/09 08:30:39;;;;;;;42.03;18.80;;;;;;;;;;4420347;32;19996;-70
2021/11/09 08:33:05;;;;;;;;;;;;;;;;;;4420372;32;20124;-70
2021/11/09 08:35:31;;;;;;;49.80;17.95;;;;;;;;;;4420401;32;19933;-70
2021/11/09 08:37:56;;;;;;;;;;;;;;;;;;4420523;32;20034;-71
2021/11/09 08:40:23;;;;;;;44.38;17.40;;;;;;;;;;4406454;32;19937;-68
2021/11/09 08:42:54;;;;;;;52.03;19.55;;;;;;;;;;4406258;32;20521;-70
2021/11/09 08:45:29;;;;;;;43.30;17.92;;;;;;;;;;4419998;32;20018;-70
2021/11/09 08:48:04;;;;;;;48.20;16.02;;;;;;;;;;4408592;32;20440;-70
2021/11/09 08:50:29;;;;;;;42.72;19.70;;;;;;;;;;4423540;32;20039;-70
2021/11/09 08:52:56;;;;;;;;;;;;;;;;;;4423610;32;20096;-70
2021/11/09 08:55:29;;;;;;;34.83;17.27;;;;;;;;;;4423339;32;20293;-70
2021/11/09 08:58:17;;;;;;;40.60;15.32;;;;;;;;;;4423536;32;20580;-70
2021/11/09 09:06:29;;;;;;;46.13;16.87;;;;;;;;;;4418069;32;20374;-71
2021/11/09 09:08:54;;;;;;;45.53;15.52;;;;;;;;;;4423238;32;20026;-71
2021/11/09 09:11:19;;;;;;;;;;;;;;;;;;4422455;32;20044;-71
2021/11/09 09:13:45;;;;;;;41.22;15.75;;;;;;;;;;4422170;32;19987;-70
2021/11/09 09:16:10;;;;;;;;;;;;;;;;;;4423412;32;20352;-70
2021/11/09 09:18:36;;;;;;;35.20;14.10;;;;;;;;;;4423362;32;19980;-71
2021/11/09 09:21:13;;;;;;;;;;;;;;;;;;4423711;32;20140;-71
2021/11/09 09:23:45;;;;;;;40.40;14.13;;;;;;;;;;4408956;32;20287;-71
2021/11/09 09:26:27;;;;;;;41.33;14.48;;;;;;;;;;4424112;32;20074;-71
2021/11/09 09:56:45;;;;;;;40.40;14.45;;;;;;;;;;4422295;32;20108;-70
2021/11/09 09:59:13;;;;;;;39.47;14.68;;;;;;;;;;4422135;32;20014;-71
2021/11/09 10:01:42;;;;;;;39.55;13.93;;;;;;;;;;4422042;32;20034;-70
2021/11/09 10:04:26;;;;;;;36.80;14.90;;;;;;;;;;4422358;32;20083;-69
2021/11/09 10:06:54;;;;;;;44.08;16.20;;;;;;;;;;4422192;32;20066;-70
2021/11/09 10:09:41;;;;;;;44.00;15.50;;;;;;;;;;4422429;32;20048;-70
2021/11/09 10:12:14;;;;;;;38.80;14.55;;;;;;;;;;4408709;32;20089;-70
2021/11/09 10:14:39;;;;;;;40.75;15.80;;;;;;;;;;4422640;32;20023;-71
2021/11/09 10:17:04;;;;;;;;;;;;;;;;;;4421390;32;20057;-71
2021/11/09 10:19:31;;;;;;;40.67;15.27;;;;;;;;;;4421744;32;20008;-71
2021/11/09 10:22:00;;;;;;;45.25;15.02;;;;;;;;;;4422028;32;20026;-70
2021/11/09 10:24:27;;;;;;;42.60;15.30;;;;;;;;;;4408319;32;20053;-71
2021/11/09 10:26:54;;;;;;;45.15;15.95;;;;;;;;;;4421949;32;20049;-71
2021/11/09 10:29:35;;;;;;;43.55;17.00;;;;;;;;;;4421942;32;20400;-70
2021/11/09 10:32:16;;;;;;;43.15;15.60;;;;;;;;;;4409517;32;20027;-71
2021/11/09 10:34:43;;;;;;;43.83;15.57;;;;;;;;;;4422751;32;20022;-70
2021/11/09 10:37:11;;;;;;;41.75;15.25;;;;;;;;;;4421835;32;20025;-70
2021/11/09 10:39:37;;;;;;;36.80;16.60;;;;;;;;;;4422073;32;20113;-71
2021/11/09 10:42:02;;;;;;;;;;;;;;;;;;4408324;32;20022;-72
2021/11/09 10:44:32;;;;;;;43.15;14.95;;;;;;;;;;4422054;32;19970;-70
2021/11/09 10:47:13;;;;;;;44.25;14.52;;;;;;;;;;4407914;32;20517;-70
2021/11/09 10:49:45;;;;;;;44.70;14.10;;;;;;;;;;4421806;32;20048;-71
2021/11/09 10:52:14;;;;;;;38.03;14.13;;;;;;;;;;4422698;32;20064;-70
2021/11/09 10:54:40;;;;;;;32.67;14.73;;;;;;;;;;4422156;32;20030;-70
2021/11/09 10:57:09;;;;;;;;;;;;;;;;;;4407895;32;20018;-71
2021/11/09 10:59:47;;;;;;;44.25;14.15;;;;;;;;;;4421223;32;20004;-70
2021/11/09 11:05:26;;;;;;;39.30;14.75;;;;;;;;;;4421860;32;20045;-70
2021/11/09 11:07:52;;;;;;;43.17;17.15;;;;;;;;;;4422374;32;20033;-70
2021/11/09 11:10:25;;;;;;;42.10;15.52;;;;;;;;;;4420334;32;20057;-71
2021/11/09 11:13:11;;;;;;;40.83;16.73;;;;;;;;;;4421837;32;20408;-70
2021/11/09 11:15:36;;;;;;;33.58;15.70;;;;;;;;;;4421155;32;20046;-70
2021/11/09 11:18:01;;;;;;;;;;;;;;;;;;4407776;32;20018;-70
2021/11/09 11:20:26;;;;;;;40.40;16.33;;;;;;;;;;4407837;32;20001;-71
2021/11/09 11:22:51;;;;;;;;;;;;;;;;;;4421631;32;20151;-70
2021/11/09 11:25:16;;;;;;;33.53;14.45;;;;;;;;;;4419879;32;19941;-71
2021/11/09 11:27:45;;;;;;;;;;;;;;;;;;4421004;32;20068;-70
2021/11/09 11:30:13;;;;;;;50.12;15.25;;;;;;;;;;4421123;32;20363;-72
2021/11/09 11:32:38;;;;;;;27.67;12.43;;;;;;;;;;4420679;32;20022;-71
2021/11/09 11:35:03;;;;;;;;;;;;;;;;;;4421833;32;20397;-72
2021/11/09 11:37:29;;;;;;;35.08;13.32;;;;;;;;;;4421372;32;20267;-71
2021/11/09 11:39:57;;;;;;;;;;;;;;;;;;4421341;32;20026;-71
2021/11/09 11:42:53;;;;;;;37.47;14.55;;;;;;;;;;4421699;32;19932;-71
2021/11/09 11:45:18;;;;;;;35.88;14.87;;;;;;;;;;4420970;32;20068;-72
2021/11/09 11:47:49;;;;;;;;;;;;;;;;;;4420683;32;20030;-71
2021/11/09 11:50:15;;;;;;;44.45;14.57;;;;;;;;;;4411069;32;19941;-67
2021/11/09 11:52:42;;;;;;;;;;;;;;;;;;4407592;32;20475;-72
2021/11/09 11:55:09;;;;;;;41.92;16.27;;;;;;;;;;4405959;32;19937;-69
2021/11/09 11:57:36;;;;;;;44.15;17.37;;;;;;;;;;4393172;32;20022;-71
2021/11/09 12:00:22;;;;;;;42.95;17.12;;;;;;;;;;4405191;32;20019;-72
2021/11/09 12:02:48;;;;;;;37.90;17.98;;;;;;;;;;4407223;32;20034;-71
2021/11/09 12:05:28;;;;;;;;;;;;;;;;;;4420709;32;20064;-71
2021/11/09 12:07:57;;;;;;;49.70;17.70;;;;;;;;;;4421044;32;19959;-71
2021/11/09 12:10:22;;;;;;;45.72;16.87;;;;;;;;;;4419100;32;20017;-70
2021/11/09 12:12:47;;;;;;;;;;;;;;;;;;4421000;32;20044;-70
2021/11/09 12:15:12;;;;;;;41.47;15.15;;;;;;;;;;4420596;32;19943;-70
2021/11/09 12:17:41;;;;;;;;;;;;;;;;;;4421253;32;20175;-70
2021/11/09 12:20:27;;;;;;;37.42;14.27;;;;;;;;;;4420513;32;19937;-70
2021/11/09 12:22:53;;;;;;;33.25;12.32;;;;;;;;;;4420423;32;20114;-70
2021/11/09 12:25:28;;;;;;;37.10;13.40;;;;;;;;;;4420496;32;20045;-71
2021/11/09 12:27:59;;;;;;;31.45;13.25;;;;;;;;;;4420904;32;20018;-69
2021/11/09 12:30:37;;;;;;;42.22;11.77;;;;;;;;;;4420523;32;20087;-69
2021/11/09 12:33:23;;;;;;;28.42;9.95;;;;;;;;;;4405689;32;20120;-70
2021/11/09 12:35:50;;;;;;;32.63;11.05;;;;;;;;;;4405283;32;20026;-71
2021/11/09 12:38:23;;;;;;;25.48;10.38;;;;;;;;;;4405299;32;20112;-69
2021/11/09 12:40:51;;;;;;;28.12;9.93;;;;;;;;;;4411165;32;20026;-70
2021/11/09 12:43:16;;;;;;;22.20;8.88;;;;;;;;;;4420335;32;20070;-71
2021/11/09 12:45:42;;;;;;;;;;;;;;;;;;4420892;32;20030;-71
2021/11/09 12:48:10;;;;;;;28.77;8.02;;;;;;;;;;4419939;32;20281;-71
2021/11/09 12:50:36;;;;;;;38.30;10.98;;;;;;;;;;4420095;32;20061;-70
2021/11/09 12:53:12;;;;;;;34.10;8.40;;;;;;;;;;4419916;32;20027;-71
2021/11/09 12:55:38;;;;;;;20.92;8.68;;;;;;;;;;4420362;32;20044;-71
2021/11/09 12:58:22;;;;;;;20.23;8.65;;;;;;;;;;4420400;32;20026;-71
2021/11/09 13:01:16;;;;;;;20.23;8.68;;;;;;;;;;4420581;32;20076;-70
2021/11/09 13:06:44;;;;;;;24.25;9.63;;;;;;;;;;4381182;32;20026;-70
2021/11/09 13:09:17;;;;;;;28.62;8.63;;;;;;;;;;4420343;32;20066;-70
2021/11/09 13:11:50;;;;;;;18.92;8.23;;;;;;;;;;4419984;32;20034;-71
2021/11/09 13:14:36;;;;;;;27.27;8.77;;;;;;;;;;4420217;32;20096;-70
2021/11/09 13:17:08;;;;;;;15.32;8.65;;;;;;;;;;4342790;33;20024;-70
2021/11/09 13:19:38;;;;;;;23.33;8.35;;;;;;;;;;4410847;32;20067;-71
2021/11/09 13:25:02;;;;;;;36.67;13.15;;;;;;;;;;4418400;32;20343;-70
2021/11/09 13:27:36;;;;;;;25.80;8.50;;;;;;;;;;4420154;32;20022;-70
2021/11/09 13:30:09;;;;;;;17.62;9.32;;;;;;;;;;4420169;32;20041;-70
2021/11/09 13:32:35;;;;;;;21.67;9.15;;;;;;;;;;4420531;32;20051;-71
2021/11/09 13:35:00;;;;;;;;;;;;;;;;;;4422697;32;20022;-67
2021/11/09 13:37:25;;;;;;;18.12;8.48;;;;;;;;;;4422817;32;19933;-70
2021/11/09 13:40:00;;;;;;;15.85;7.25;;;;;;;;;;4423346;32;20052;-70
2021/11/09 13:42:26;;;;;;;25.20;8.65;;;;;;;;;;4422775;32;20083;-71
2021/11/09 13:44:54;;;;;;;;;;;;;;;;;;4374245;32;20046;-70
2021/11/09 13:47:49;;;;;;;;;;;;;;;;;;;;;
2021/11/09 13:50:26;;;;;;;23.20;8.68;;;;;;;;;;4392840;32;20023;-70
2021/11/09 13:52:52;;;;;;;25.02;8.02;;;;;;;;;;4390385;32;20026;-71
2021/11/09 13:55:26;;;;;;;;;;;;;;;;;;4392352;32;20022;-70
2021/11/09 13:57:51;;;;;;;21.70;8.50;;;;;;;;;;4391744;32;19989;-71
2021/11/09 14:00:17;;;;;;;;;;;;;;;;;;4391510;32;20458;-70
2021/11/09 14:02:47;;;;;;;17.85;8.32;;;;;;;;;;4391776;32;19934;-71
2021/11/09 14:11:57;;;;;;;19.37;9.88;;;;;;;;;;4392292;32;20095;-71
2021/11/09 14:14:42;;;;;;;20.27;8.40;;;;;;;;;;4392218;32;20056;-70
2021/11/09 14:17:20;;;;;;;29.55;9.60;;;;;;;;;;4391737;32;20015;-70
2021/11/09 14:19:48;;;;;;;25.12;10.25;;;;;;;;;;4378351;32;20109;-70
2021/11/09 14:22:28;;;;;;;17.75;9.48;;;;;;;;;;4391590;32;20345;-71
2021/11/09 14:27:58;;;;;;;20.88;9.20;;;;;;;;;;4383130;32;20027;-71
2021/11/09 14:30:23;;;;;;;;;;;;;;;;;;4391997;32;20023;-71
2021/11/09 14:33:01;;;;;;;17.80;8.82;;;;;;;;;;4391777;32;19981;-71
2021/11/09 14:35:31;;;;;;;19.67;9.18;;;;;;;;;;4390974;32;20019;-71
2021/11/09 14:38:07;;;;;;;28.77;9.48;;;;;;;;;;4385107;32;20030;-71
2021/11/09 14:40:42;;;;;;;21.85;8.95;;;;;;;;;;4377518;32;20073;-70
2021/11/09 14:43:31;;;;;;;22.98;9.70;;;;;;;;;;4375307;32;20069;-72
2021/11/09 14:46:26;;;;;;;30.60;11.43;;;;;;;;;;4376475;32;20023;-70
2021/11/09 14:48:57;;;;;;;19.75;9.40;;;;;;;;;;4376736;32;20382;-70
2021/11/09 14:54:46;;;;;;;25.62;11.70;;;;;;;;;;4375723;32;20080;-70
2021/11/09 14:57:11;;;;;;;25.98;9.30;;;;;;;;;;4376230;32;20398;-71
2021/11/09 14:59:36;;;;;;;;;;;;;;;;;;4376175;32;20069;-71
2021/11/09 15:02:05;;;;;;;29.20;12.23;;;;;;;;;;4375741;32;20021;-71
2021/11/09 15:04:48;;;;;;;;;;;;;;;;;;;;;
2021/11/09 15:07:29;;;;;;;26.15;10.15;;;;;;;;;;4376237;32;20023;-71
2021/11/09 15:29:12;;;;;;;24.10;11.60;;;;;;;;;;4329388;33;20024;-70
2021/11/09 15:31:47;;;;;;;22.10;9.38;;;;;;;;;;4329520;33;20038;-71
2021/11/09 15:34:20;;;;;;;28.40;10.55;;;;;;;;;;4373830;32;20011;-70
2021/11/09 15:39:20;;;;;;;25.02;11.18;;;;;;;;;;4390145;32;20050;-71
2021/11/09 15:41:45;;;;;;;25.80;9.70;;;;;;;;;;4390511;32;20022;-71
2021/11/09 15:44:11;;;;;;;;;;;;;;;;;;4391108;32;20428;-70
2021/11/09 15:46:49;;;;;;;19.45;9.23;;;;;;;;;;4390381;32;19937;-71
2021/11/09 15:49:14;;;;;;;30.75;11.85;;;;;;;;;;4381641;32;20065;-71
2021/11/09 15:51:40;;;;;;;;;;;;;;;;;;4390282;32;20417;-71
2021/11/09 15:54:08;;;;;;;26.60;9.95;;;;;;;;;;4375635;32;20397;-70
2021/11/09 15:56:35;;;;;;;30.05;10.63;;;;;;;;;;4374888;32;20030;-70
2021/11/09 15:59:01;;;;;;;20.55;9.18;;;;;;;;;;4375210;32;20045;-70
2021/11/09 16:01:36;;;;;;;;;;;;;;;;;;;;;
2021/11/09 16:04:02;;;;;;;28.20;9.35;;;;;;;;;;4376036;32;19941;-72
2021/11/09 16:06:30;;;;;;;;;;;;;;;;;;4376436;32;20053;-71
2021/11/09 16:08:56;;;;;;;32.42;9.95;;;;;;;;;;4373566;32;20039;-70
2021/11/09 16:11:22;;;;;;;;;;;;;;;;;;4374344;32;20494;-71
2021/11/09 16:13:55;;;;;;;31.48;9.52;;;;;;;;;;4360001;32;19950;-71
2021/11/09 16:16:23;;;;;;;25.75;10.10;;;;;;;;;;4375456;32;20031;-71
2021/11/09 16:18:48;;;;;;;25.00;9.82;;;;;;;;;;4386665;32;20046;-71
2021/11/09 16:21:14;;;;;;;;;;;;;;;;;;4377991;32;20082;-71
2021/11/09 16:23:39;;;;;;;32.90;11.88;;;;;;;;;;4376398;32;19938;-70
2021/11/09 16:26:04;;;;;;;;;;;;;;;;;;4389742;32;20038;-70
2021/11/09 16:28:30;;;;;;;30.02;13.45;;;;;;;;;;4389905;32;19967;-71
2021/11/09 16:30:55;;;;;;;;;;;;;;;;;;4389988;32;20061;-71
2021/11/09 16:33:27;;;;;;;26.20;11.75;;;;;;;;;;4389530;32;19933;-71
2021/11/09 16:38:28;;;;;;;23.38;10.70;;;;;;;;;;4390118;32;20031;-70
2021/11/09 16:40:55;;;;;;;26.50;10.98;;;;;;;;;;4389796;32;20081;-72
2021/11/09 16:43:27;;;;;;;34.47;11.95;;;;;;;;;;4375803;32;20023;-71
2021/11/09 16:52:00;;;;;;;36.00;9.60;;;;;;;;;;4328507;33;20044;-71
2021/11/09 16:54:32;;;;;;;29.80;11.15;;;;;;;;;;4369977;32;20242;-71
2021/11/09 16:57:13;;;;;;;38.08;10.93;;;;;;;;;;4384357;32;20110;-72
2021/11/09 16:59:55;;;;;;;34.20;11.52;;;;;;;;;;4385806;32;20030;-72
2021/11/09 17:02:29;;;;;;;27.83;10.68;;;;;;;;;;4389250;32;20383;-71
2021/11/09 17:21:34;;;;;;;32.28;11.93;;;;;;;;;;4388964;32;20076;-71
2021/11/09 18:04:30;;;;;;;28.33;11.95;;;;;;;;;;4377061;32;20444;-71
2021/11/09 18:23:12;;;;;;;34.22;16.27;;;;;;;;;;4376618;32;20034;-70
2021/11/09 18:25:39;;;;;;;;;;;;;;;;;;4376183;32;20018;-71
2021/11/09 18:28:07;;;;;;;;;;;;;;;;;;4376063;32;20005;-71
2021/11/09 18:30:37;;;;;;;44.20;18.10;;;;;;;;;;4376397;32;19949;-71
2021/11/09 18:33:03;;;;;;;50.78;16.08;;;;;;;;;;4375462;32;20118;-71
2021/11/09 18:35:31;;;;;;;;;;;;;;;;;;4376519;32;20094;-70
2021/11/09 18:37:59;;;;;;;45.28;15.65;;;;;;;;;;4380905;32;19975;-70
2021/11/09 18:40:44;;;;;;;45.22;18.73;;;;;;;;;;4390940;32;20421;-70
2021/11/09 18:43:12;;;;;;;45.33;15.38;;;;;;;;;;4391594;32;20022;-70
2021/11/09 18:45:37;;;;;;;45.03;18.90;;;;;;;;;;4387052;32;20022;-71
2021/11/09 18:48:02;;;;;;;;;;;;;;;;;;4381043;32;20181;-70
2021/11/09 18:53:37;;;;;;;37.80;13.95;;;;;;;;;;4360377;32;20543;-71
2021/11/09 18:56:03;;;;;;;43.22;18.80;;;;;;;;;;4377118;32;20019;-71
2021/11/09 18:58:28;;;;;;;;;;;;;;;;;;4378381;32;20052;-71
2021/11/09 19:00:53;;;;;;;46.70;17.12;;;;;;;;;;4391429;32;20282;-71
2021/11/09 19:03:19;;;;;;;;;;;;;;;;;;4391118;32;20064;-70
2021/11/09 19:05:44;;;;;;;47.03;19.95;;;;;;;;;;4377633;32;19953;-70
2021/11/09 19:08:12;;;;;;;;;;;;;;;;;;4385214;32;20405;-70
2021/11/09 19:10:50;;;;;;;48.83;15.95;;;;;;;;;;4375994;32;19980;-71
2021/11/09 19:13:19;;;;;;;43.75;15.43;;;;;;;;;;4376230;32;20042;-70
2021/11/09 19:15:45;;;;;;;39.85;15.82;;;;;;;;;;4375861;32;20372;-70
2021/11/09 19:18:12;;;;;;;43.63;14.93;;;;;;;;;;4376751;32;20023;-71
2021/11/09 19:20:38;;;;;;;49.42;16.17;;;;;;;;;;4376953;32;20106;-70
2021/11/09 19:23:03;;;;;;;;;;;;;;;;;;4375764;32;20015;-70
2021/11/09 19:25:29;;;;;;;52.55;17.40;;;;;;;;;;4375940;32;19946;-70
2021/11/09 19:27:54;;;;;;;;;;;;;;;;;;4375699;32;20034;-70